SIA7407 KLAX-PHNL
Flight info
| Callsign | SIA7407 |
|---|---|
| Flight time | 5h 14m |
| Altitude | 36000 |
| Route | SUMMR2 DINTY DUETS R576 DIALO/N0486F380 R576 DENNS INOYI1 |
| Aircraft | B744/H-SDE1E2E3FGHIJ3J5M1P2RWXYZ/LB1D1 |
Departure
| Time | 2026-05-05 03:32 |
|---|---|
| Airport | Los Angeles International Airport (KLAX) |
Arrival
| Time | 2026-05-05 08:47 |
|---|---|
| Airport | Daniel K. Inouye International Airport (PHNL) |
| Time | Latitude | Longitude | Altitude | Speed | Heading |
|---|---|---|---|---|---|
| 2026-05-05 03:06 | 33.93310 | -118.40371 | 128 ft | 0 kts | 171° |
| 2026-05-05 03:18 | 33.93326 | -118.40374 | 129 ft | 2 kts | 171° |
| 2026-05-05 03:19 | 33.93358 | -118.40383 | 132 ft | 2 kts | 151° |
| 2026-05-05 03:19 | 33.93372 | -118.40393 | 132 ft | 2 kts | 140° |
| 2026-05-05 03:19 | 33.93383 | -118.40407 | 122 ft | 2 kts | 116° |
| 2026-05-05 03:20 | 33.93390 | -118.40425 | 127 ft | 2 kts | 115° |
| 2026-05-05 03:20 | 33.93396 | -118.40441 | 132 ft | 0 kts | 90° |
| 2026-05-05 03:26 | 33.93396 | -118.40429 | 132 ft | 4 kts | 89° |
| 2026-05-05 03:26 | 33.93398 | -118.40384 | 132 ft | 6 kts | 86° |
| 2026-05-05 03:26 | 33.93401 | -118.40335 | 132 ft | 6 kts | 84° |
| 2026-05-05 03:26 | 33.93406 | -118.40282 | 128 ft | 7 kts | 83° |
| 2026-05-05 03:27 | 33.93413 | -118.40223 | 132 ft | 8 kts | 82° |
| 2026-05-05 03:27 | 33.93421 | -118.40151 | 132 ft | 9 kts | 82° |
| 2026-05-05 03:27 | 33.93430 | -118.40067 | 132 ft | 11 kts | 82° |
| 2026-05-05 03:27 | 33.93441 | -118.39972 | 125 ft | 12 kts | 82° |
| 2026-05-05 03:28 | 33.93451 | -118.39867 | 129 ft | 13 kts | 84° |
| 2026-05-05 03:28 | 33.93463 | -118.39754 | 124 ft | 14 kts | 82° |
| 2026-05-05 03:28 | 33.93476 | -118.39632 | 124 ft | 15 kts | 82° |
| 2026-05-05 03:28 | 33.93486 | -118.39505 | 132 ft | 15 kts | 86° |
| 2026-05-05 03:29 | 33.93494 | -118.39389 | 130 ft | 14 kts | 81° |
| 2026-05-05 03:29 | 33.93508 | -118.39269 | 123 ft | 15 kts | 79° |
| 2026-05-05 03:29 | 33.93525 | -118.39146 | 128 ft | 15 kts | 82° |
| 2026-05-05 03:29 | 33.93537 | -118.39015 | 124 ft | 16 kts | 84° |
| 2026-05-05 03:30 | 33.93550 | -118.38877 | 126 ft | 17 kts | 84° |
| 2026-05-05 03:30 | 33.93565 | -118.38735 | 128 ft | 17 kts | 82° |
| 2026-05-05 03:30 | 33.93581 | -118.38587 | 127 ft | 18 kts | 83° |
| 2026-05-05 03:30 | 33.93596 | -118.38433 | 124 ft | 17 kts | 83° |
| 2026-05-05 03:31 | 33.93622 | -118.38310 | 126 ft | 10 kts | 47° |
| 2026-05-05 03:31 | 33.93689 | -118.38285 | 128 ft | 11 kts | 358° |
| 2026-05-05 03:31 | 33.93729 | -118.38334 | 129 ft | 8 kts | 277° |
| 2026-05-05 03:31 | 33.93710 | -118.38547 | 124 ft | 58 kts | 262° |
| 2026-05-05 03:32 | 33.93625 | -118.39363 | 130 ft | 135 kts | 263° |
| 2026-05-05 03:32 | 33.93491 | -118.40730 | 316 ft | 186 kts | 264° |
| 2026-05-05 03:32 | 33.93340 | -118.42344 | 1160 ft | 201 kts | 265° |
| 2026-05-05 03:32 | 33.93184 | -118.44118 | 1824 ft | 225 kts | 265° |
| 2026-05-05 03:33 | 33.93035 | -118.46107 | 2401 ft | 252 kts | 268° |
| 2026-05-05 03:33 | 33.92973 | -118.48297 | 3177 ft | 270 kts | 269° |
| 2026-05-05 03:33 | 33.92901 | -118.50549 | 4342 ft | 269 kts | 264° |
| 2026-05-05 03:33 | 33.92677 | -118.52799 | 5404 ft | 273 kts | 264° |
| 2026-05-05 03:34 | 33.92471 | -118.55066 | 6618 ft | 264 kts | 262° |
| 2026-05-05 03:34 | 33.92234 | -118.57279 | 7681 ft | 268 kts | 262° |
| 2026-05-05 03:34 | 33.92037 | -118.59519 | 8657 ft | 271 kts | 263° |
| 2026-05-05 03:34 | 33.91861 | -118.61788 | 9607 ft | 274 kts | 263° |
| 2026-05-05 03:35 | 33.91778 | -118.64097 | 10407 ft | 282 kts | 269° |
| 2026-05-05 03:35 | 33.91773 | -118.66522 | 10925 ft | 298 kts | 268° |
| 2026-05-05 03:35 | 33.91753 | -118.69097 | 11461 ft | 318 kts | 268° |
| 2026-05-05 03:35 | 33.91741 | -118.71852 | 11922 ft | 341 kts | 269° |
| 2026-05-05 03:36 | 33.91733 | -118.74762 | 12001 ft | 349 kts | 269° |
| 2026-05-05 03:36 | 33.91724 | -118.77704 | 12006 ft | 352 kts | 269° |
| 2026-05-05 03:36 | 33.91709 | -118.80657 | 12000 ft | 353 kts | 268° |
| 2026-05-05 03:36 | 33.91707 | -118.83607 | 12001 ft | 353 kts | 271° |
| 2026-05-05 03:37 | 33.91828 | -118.86572 | 12241 ft | 357 kts | 270° |
| 2026-05-05 03:37 | 33.91888 | -118.89569 | 13313 ft | 358 kts | 270° |
| 2026-05-05 03:37 | 33.91961 | -118.92573 | 14325 ft | 361 kts | 271° |
| 2026-05-05 03:37 | 33.92060 | -118.95616 | 15210 ft | 366 kts | 271° |
| 2026-05-05 03:38 | 33.92162 | -118.98687 | 16047 ft | 370 kts | 272° |
| 2026-05-05 03:38 | 33.92647 | -119.01752 | 16874 ft | 378 kts | 286° |
| 2026-05-05 03:38 | 33.93759 | -119.04609 | 17668 ft | 387 kts | 297° |
| 2026-05-05 03:38 | 33.95174 | -119.07389 | 18420 ft | 393 kts | 298° |
| 2026-05-05 03:39 | 33.96638 | -119.10187 | 19107 ft | 397 kts | 298° |
| 2026-05-05 03:39 | 33.98111 | -119.13015 | 19805 ft | 400 kts | 298° |
| 2026-05-05 03:39 | 33.99581 | -119.15877 | 20497 ft | 403 kts | 298° |
| 2026-05-05 03:39 | 34.01326 | -119.18557 | 21159 ft | 412 kts | 310° |
| 2026-05-05 03:40 | 34.03534 | -119.20818 | 21804 ft | 421 kts | 319° |
| 2026-05-05 03:40 | 34.05925 | -119.22885 | 22406 ft | 425 kts | 320° |
| 2026-05-05 03:40 | 34.07560 | -119.24282 | 22806 ft | 428 kts | 320° |
| 2026-05-05 03:40 | 34.10000 | -119.26365 | 23393 ft | 431 kts | 319° |
| 2026-05-05 03:41 | 34.12414 | -119.28443 | 23895 ft | 434 kts | 319° |
| 2026-05-05 03:41 | 34.15717 | -119.31297 | 24500 ft | 439 kts | 319° |
| 2026-05-05 03:41 | 34.17367 | -119.32718 | 24802 ft | 441 kts | 319° |
| 2026-05-05 03:41 | 34.19877 | -119.34878 | 25237 ft | 445 kts | 319° |
| 2026-05-05 03:42 | 34.22403 | -119.37056 | 25685 ft | 448 kts | 318° |
| 2026-05-05 03:42 | 34.24949 | -119.39257 | 26118 ft | 452 kts | 318° |
| 2026-05-05 03:42 | 34.27516 | -119.41476 | 26580 ft | 455 kts | 318° |
| 2026-05-05 03:42 | 34.30104 | -119.43713 | 27021 ft | 459 kts | 318° |
| 2026-05-05 03:43 | 34.32711 | -119.45971 | 27476 ft | 462 kts | 317° |
| 2026-05-05 03:43 | 34.35116 | -119.48505 | 27953 ft | 456 kts | 307° |
| 2026-05-05 03:43 | 34.37098 | -119.51463 | 28414 ft | 451 kts | 297° |
| 2026-05-05 03:43 | 34.38623 | -119.54749 | 28876 ft | 446 kts | 288° |
| 2026-05-05 03:44 | 34.39663 | -119.58260 | 29359 ft | 441 kts | 278° |
| 2026-05-05 03:44 | 34.40204 | -119.61900 | 29839 ft | 438 kts | 270° |
| 2026-05-05 03:44 | 34.40244 | -119.65578 | 30283 ft | 436 kts | 261° |
| 2026-05-05 03:44 | 34.40000 | -119.69242 | 30652 ft | 439 kts | 261° |
| 2026-05-05 03:45 | 34.39747 | -119.72948 | 31041 ft | 443 kts | 261° |
| 2026-05-05 03:45 | 34.39480 | -119.76683 | 31417 ft | 447 kts | 261° |
| 2026-05-05 03:45 | 34.39210 | -119.80448 | 31791 ft | 451 kts | 261° |
| 2026-05-05 03:45 | 34.38941 | -119.84249 | 32167 ft | 455 kts | 262° |
| 2026-05-05 03:46 | 34.38670 | -119.88081 | 32550 ft | 459 kts | 262° |
| 2026-05-05 03:46 | 34.38393 | -119.91942 | 33014 ft | 461 kts | 262° |
| 2026-05-05 03:46 | 34.38115 | -119.95803 | 33604 ft | 460 kts | 262° |
| 2026-05-05 03:46 | 34.37836 | -119.99662 | 34150 ft | 460 kts | 262° |
| 2026-05-05 03:47 | 34.37556 | -120.03521 | 34606 ft | 460 kts | 262° |
| 2026-05-05 03:47 | 34.37274 | -120.07376 | 35059 ft | 460 kts | 262° |
| 2026-05-05 03:47 | 34.36992 | -120.11236 | 35516 ft | 460 kts | 262° |
| 2026-05-05 03:47 | 34.36708 | -120.15092 | 35936 ft | 461 kts | 262° |
| 2026-05-05 03:48 | 34.36133 | -120.22855 | 36026 ft | 461 kts | 262° |
| 2026-05-05 03:48 | 34.35554 | -120.30592 | 36048 ft | 462 kts | 262° |
| 2026-05-05 03:49 | 34.34971 | -120.38340 | 36044 ft | 463 kts | 262° |
| 2026-05-05 03:49 | 34.34127 | -120.46035 | 36063 ft | 460 kts | 252° |
| 2026-05-05 03:50 | 34.31751 | -120.53179 | 36056 ft | 458 kts | 243° |
| 2026-05-05 03:50 | 34.29023 | -120.60099 | 36058 ft | 459 kts | 243° |
| 2026-05-05 03:51 | 34.26245 | -120.67113 | 36050 ft | 459 kts | 243° |
| 2026-05-05 03:51 | 34.23483 | -120.74081 | 36050 ft | 460 kts | 243° |
| 2026-05-05 03:52 | 34.20710 | -120.81057 | 36056 ft | 461 kts | 243° |
| 2026-05-05 03:52 | 34.17931 | -120.88039 | 36055 ft | 462 kts | 244° |
| 2026-05-05 03:53 | 34.15161 | -120.94979 | 36054 ft | 462 kts | 244° |
| 2026-05-05 03:53 | 34.12366 | -121.01971 | 36057 ft | 462 kts | 244° |
| 2026-05-05 03:54 | 34.09565 | -121.08962 | 36060 ft | 463 kts | 244° |
| 2026-05-05 03:54 | 34.06758 | -121.15952 | 36060 ft | 463 kts | 244° |
| 2026-05-05 03:55 | 34.03944 | -121.22947 | 36063 ft | 464 kts | 244° |
| 2026-05-05 03:55 | 34.01121 | -121.29949 | 36062 ft | 464 kts | 244° |
| 2026-05-05 03:56 | 33.98271 | -121.37001 | 36066 ft | 465 kts | 244° |
| 2026-05-05 03:56 | 33.95436 | -121.44006 | 36068 ft | 466 kts | 244° |
| 2026-05-05 03:57 | 33.92586 | -121.51029 | 36067 ft | 467 kts | 244° |
| 2026-05-05 03:57 | 33.89731 | -121.58054 | 36066 ft | 467 kts | 244° |
| 2026-05-05 03:58 | 33.86887 | -121.65033 | 36067 ft | 468 kts | 244° |
| 2026-05-05 03:58 | 33.84019 | -121.72060 | 36072 ft | 468 kts | 244° |
| 2026-05-05 03:59 | 33.81143 | -121.79091 | 36067 ft | 469 kts | 244° |
| 2026-05-05 03:59 | 33.78262 | -121.86120 | 36070 ft | 469 kts | 244° |
| 2026-05-05 04:00 | 33.75376 | -121.93147 | 36072 ft | 469 kts | 244° |
| 2026-05-05 04:00 | 33.72481 | -122.00182 | 36072 ft | 470 kts | 244° |
| 2026-05-05 04:01 | 33.69578 | -122.07219 | 36071 ft | 470 kts | 244° |
| 2026-05-05 04:01 | 33.66670 | -122.14256 | 36075 ft | 471 kts | 244° |
| 2026-05-05 04:02 | 33.63753 | -122.21300 | 36077 ft | 471 kts | 244° |
| 2026-05-05 04:02 | 33.60831 | -122.28342 | 36079 ft | 472 kts | 244° |
| 2026-05-05 04:03 | 33.59392 | -122.31805 | 36081 ft | 458 kts | 244° |
| 2026-05-05 04:03 | 33.57956 | -122.35257 | 36076 ft | 468 kts | 244° |
| 2026-05-05 04:03 | 33.55027 | -122.42287 | 36082 ft | 472 kts | 244° |
| 2026-05-05 04:04 | 33.52090 | -122.49319 | 36080 ft | 471 kts | 244° |
| 2026-05-05 04:04 | 33.49155 | -122.56345 | 36085 ft | 471 kts | 246° |
| 2026-05-05 04:05 | 33.47188 | -122.63789 | 36075 ft | 470 kts | 256° |
| 2026-05-05 04:05 | 33.45622 | -122.71385 | 36079 ft | 470 kts | 256° |
| 2026-05-05 04:06 | 33.44060 | -122.78961 | 36074 ft | 468 kts | 256° |
| 2026-05-05 04:06 | 33.42492 | -122.86527 | 36076 ft | 468 kts | 256° |
| 2026-05-05 04:07 | 33.40925 | -122.94073 | 36067 ft | 467 kts | 256° |
| 2026-05-05 04:07 | 33.39352 | -123.01619 | 36071 ft | 467 kts | 256° |
| 2026-05-05 04:08 | 33.37780 | -123.09137 | 36074 ft | 465 kts | 256° |
| 2026-05-05 04:08 | 33.36204 | -123.16649 | 36078 ft | 466 kts | 256° |
| 2026-05-05 04:09 | 33.34628 | -123.24135 | 36069 ft | 463 kts | 256° |
| 2026-05-05 04:09 | 33.33049 | -123.31613 | 36074 ft | 464 kts | 256° |
| 2026-05-05 04:10 | 33.31470 | -123.39065 | 36072 ft | 462 kts | 256° |
| 2026-05-05 04:10 | 33.29890 | -123.46502 | 36070 ft | 462 kts | 256° |
| 2026-05-05 04:11 | 33.28310 | -123.53915 | 36071 ft | 459 kts | 256° |
| 2026-05-05 04:11 | 33.26738 | -123.61267 | 36071 ft | 459 kts | 256° |
| 2026-05-05 04:12 | 33.25157 | -123.68637 | 36074 ft | 457 kts | 256° |
| 2026-05-05 04:12 | 33.23570 | -123.76013 | 36076 ft | 458 kts | 256° |
| 2026-05-05 04:13 | 33.21987 | -123.83345 | 36078 ft | 456 kts | 256° |
| 2026-05-05 04:13 | 33.20399 | -123.90678 | 36078 ft | 456 kts | 256° |
| 2026-05-05 04:14 | 33.18811 | -123.97990 | 36078 ft | 454 kts | 256° |
| 2026-05-05 04:14 | 33.17221 | -124.05290 | 36078 ft | 454 kts | 256° |
| 2026-05-05 04:15 | 33.15631 | -124.12569 | 36079 ft | 453 kts | 256° |
| 2026-05-05 04:15 | 33.14037 | -124.19840 | 36078 ft | 453 kts | 256° |
| 2026-05-05 04:16 | 33.12445 | -124.27082 | 36079 ft | 451 kts | 256° |
| 2026-05-05 04:16 | 33.10850 | -124.34316 | 36082 ft | 451 kts | 256° |
| 2026-05-05 04:17 | 33.09256 | -124.41524 | 36081 ft | 449 kts | 256° |
| 2026-05-05 04:17 | 33.07660 | -124.48719 | 36081 ft | 449 kts | 256° |
| 2026-05-05 04:18 | 33.06061 | -124.55905 | 36077 ft | 448 kts | 256° |
| 2026-05-05 04:18 | 33.04456 | -124.63077 | 36079 ft | 448 kts | 256° |
| 2026-05-05 04:19 | 33.02851 | -124.70235 | 36076 ft | 446 kts | 256° |
| 2026-05-05 04:19 | 33.01242 | -124.77389 | 36077 ft | 447 kts | 256° |
| 2026-05-05 04:20 | 32.99635 | -124.84517 | 36077 ft | 445 kts | 256° |
| 2026-05-05 04:20 | 32.98023 | -124.91642 | 36075 ft | 446 kts | 256° |
| 2026-05-05 04:21 | 32.96410 | -124.98750 | 36076 ft | 444 kts | 255° |
| 2026-05-05 04:21 | 32.94805 | -125.05804 | 36078 ft | 444 kts | 255° |
| 2026-05-05 04:22 | 32.93192 | -125.12875 | 36083 ft | 442 kts | 255° |
| 2026-05-05 04:22 | 32.91576 | -125.19940 | 36085 ft | 442 kts | 255° |
| 2026-05-05 04:23 | 32.89960 | -125.26980 | 36079 ft | 440 kts | 255° |
| 2026-05-05 04:23 | 32.88606 | -125.32870 | 36077 ft | 441 kts | 255° |
| 2026-05-05 04:24 | 32.86989 | -125.39881 | 36074 ft | 439 kts | 255° |
| 2026-05-05 04:25 | 32.84572 | -125.50325 | 36078 ft | 438 kts | 255° |
| 2026-05-05 04:25 | 32.82941 | -125.57346 | 36073 ft | 438 kts | 255° |
| 2026-05-05 04:26 | 32.81329 | -125.64269 | 36080 ft | 437 kts | 255° |
| 2026-05-05 04:26 | 32.79705 | -125.71227 | 36076 ft | 437 kts | 255° |
| 2026-05-05 04:27 | 32.78077 | -125.78179 | 36083 ft | 436 kts | 255° |
| 2026-05-05 04:27 | 32.76450 | -125.85109 | 36079 ft | 436 kts | 255° |
| 2026-05-05 04:28 | 32.74818 | -125.92043 | 36079 ft | 435 kts | 255° |
| 2026-05-05 04:28 | 32.73187 | -125.98952 | 36074 ft | 435 kts | 255° |
| 2026-05-05 04:29 | 32.71551 | -126.05866 | 36074 ft | 434 kts | 255° |
| 2026-05-05 04:29 | 32.69914 | -126.12762 | 36072 ft | 434 kts | 255° |
| 2026-05-05 04:30 | 32.68276 | -126.19649 | 36077 ft | 433 kts | 255° |
| 2026-05-05 04:30 | 32.66632 | -126.26513 | 36172 ft | 434 kts | 259° |
| 2026-05-05 04:30 | 32.65801 | -126.30009 | 36089 ft | 446 kts | 259° |
| 2026-05-05 04:31 | 32.64951 | -126.33592 | 36084 ft | 456 kts | 259° |
| 2026-05-05 04:31 | 32.63189 | -126.40897 | 36095 ft | 462 kts | 259° |
| 2026-05-05 04:32 | 32.61430 | -126.48223 | 36096 ft | 461 kts | 259° |
| 2026-05-05 04:32 | 32.59665 | -126.55533 | 36086 ft | 460 kts | 259° |
| 2026-05-05 04:33 | 32.57901 | -126.62826 | 36091 ft | 460 kts | 259° |
| 2026-05-05 04:33 | 32.56137 | -126.70102 | 36084 ft | 459 kts | 259° |
| 2026-05-05 04:34 | 32.54370 | -126.77365 | 36083 ft | 458 kts | 259° |
| 2026-05-05 04:34 | 32.52602 | -126.84613 | 36077 ft | 457 kts | 259° |
| 2026-05-05 04:35 | 32.50832 | -126.91850 | 36081 ft | 457 kts | 259° |
| 2026-05-05 04:35 | 32.49057 | -126.99087 | 36087 ft | 457 kts | 259° |
| 2026-05-05 04:36 | 32.47282 | -127.06305 | 36080 ft | 456 kts | 259° |
| 2026-05-05 04:36 | 32.45503 | -127.13518 | 36086 ft | 456 kts | 259° |
| 2026-05-05 04:37 | 32.43721 | -127.20725 | 36088 ft | 456 kts | 259° |
| 2026-05-05 04:37 | 32.41935 | -127.27928 | 36083 ft | 456 kts | 259° |
| 2026-05-05 04:38 | 32.40148 | -127.35119 | 36093 ft | 455 kts | 259° |
| 2026-05-05 04:38 | 32.38367 | -127.42264 | 36088 ft | 455 kts | 259° |
| 2026-05-05 04:39 | 32.36573 | -127.49440 | 36084 ft | 455 kts | 259° |
| 2026-05-05 04:39 | 32.34777 | -127.56609 | 36091 ft | 455 kts | 259° |
| 2026-05-05 04:40 | 32.32977 | -127.63772 | 36097 ft | 455 kts | 259° |
| 2026-05-05 04:40 | 32.31172 | -127.70938 | 36093 ft | 454 kts | 259° |
| 2026-05-05 04:41 | 32.29363 | -127.78101 | 36099 ft | 454 kts | 259° |
| 2026-05-05 04:41 | 32.27552 | -127.85249 | 36096 ft | 454 kts | 259° |
| 2026-05-05 04:42 | 32.25740 | -127.92387 | 36098 ft | 454 kts | 259° |
| 2026-05-05 04:42 | 32.23924 | -127.99522 | 36099 ft | 453 kts | 259° |
| 2026-05-05 04:43 | 32.22104 | -128.06652 | 36099 ft | 453 kts | 259° |
| 2026-05-05 04:43 | 32.20293 | -128.13726 | 36110 ft | 453 kts | 259° |
| 2026-05-05 04:44 | 32.18467 | -128.20846 | 36102 ft | 453 kts | 259° |
| 2026-05-05 04:44 | 32.16638 | -128.27956 | 36105 ft | 452 kts | 259° |
| 2026-05-05 04:45 | 32.14803 | -128.35070 | 36107 ft | 452 kts | 259° |
| 2026-05-05 04:45 | 32.12970 | -128.42160 | 36112 ft | 452 kts | 259° |
| 2026-05-05 04:46 | 32.11130 | -128.49257 | 36109 ft | 452 kts | 259° |
| 2026-05-05 04:46 | 32.09291 | -128.56334 | 36111 ft | 451 kts | 259° |
| 2026-05-05 04:47 | 32.07445 | -128.63419 | 36113 ft | 451 kts | 259° |
| 2026-05-05 04:47 | 32.05612 | -128.70438 | 36115 ft | 451 kts | 259° |
| 2026-05-05 04:48 | 32.03763 | -128.77499 | 36121 ft | 450 kts | 259° |
| 2026-05-05 04:48 | 32.01913 | -128.84545 | 36113 ft | 450 kts | 259° |
| 2026-05-05 04:49 | 32.00061 | -128.91580 | 36121 ft | 449 kts | 259° |
| 2026-05-05 04:49 | 31.98208 | -128.98606 | 36120 ft | 448 kts | 259° |
| 2026-05-05 04:50 | 31.96353 | -129.05619 | 36117 ft | 448 kts | 259° |
| 2026-05-05 04:50 | 31.94497 | -129.12620 | 36126 ft | 447 kts | 259° |
| 2026-05-05 04:51 | 31.92640 | -129.19605 | 36119 ft | 446 kts | 260° |
| 2026-05-05 04:51 | 31.90783 | -129.26573 | 36129 ft | 446 kts | 260° |
| 2026-05-05 04:52 | 31.88926 | -129.33525 | 36123 ft | 445 kts | 260° |
| 2026-05-05 04:52 | 31.87069 | -129.40460 | 36130 ft | 444 kts | 260° |
| 2026-05-05 04:53 | 31.85212 | -129.47381 | 36132 ft | 443 kts | 260° |
| 2026-05-05 04:53 | 31.83354 | -129.54286 | 36137 ft | 442 kts | 260° |
| 2026-05-05 04:54 | 31.81497 | -129.61172 | 36133 ft | 442 kts | 260° |
| 2026-05-05 04:54 | 31.79638 | -129.68047 | 36141 ft | 441 kts | 261° |
| 2026-05-05 04:55 | 31.77791 | -129.74865 | 36139 ft | 440 kts | 261° |
| 2026-05-05 04:55 | 31.75928 | -129.81720 | 36138 ft | 440 kts | 261° |
| 2026-05-05 04:56 | 31.74062 | -129.88573 | 36148 ft | 440 kts | 261° |
| 2026-05-05 04:56 | 31.72194 | -129.95418 | 36143 ft | 440 kts | 261° |
| 2026-05-05 04:57 | 31.70323 | -130.02256 | 36142 ft | 439 kts | 260° |
| 2026-05-05 04:57 | 31.68451 | -130.09086 | 36151 ft | 439 kts | 260° |
| 2026-05-05 04:58 | 31.66575 | -130.15911 | 36145 ft | 439 kts | 260° |
| 2026-05-05 04:58 | 31.64709 | -130.22684 | 36154 ft | 438 kts | 260° |
| 2026-05-05 04:59 | 31.62817 | -130.29538 | 36145 ft | 439 kts | 260° |
| 2026-05-05 04:59 | 31.60941 | -130.36314 | 36152 ft | 440 kts | 260° |
| 2026-05-05 05:00 | 31.59048 | -130.43135 | 36157 ft | 440 kts | 260° |
| 2026-05-05 05:00 | 31.57152 | -130.49954 | 36154 ft | 440 kts | 260° |
| 2026-05-05 05:01 | 31.55250 | -130.56778 | 36159 ft | 440 kts | 259° |
| 2026-05-05 05:01 | 31.53345 | -130.63599 | 36160 ft | 440 kts | 259° |
| 2026-05-05 05:02 | 31.51434 | -130.70422 | 36159 ft | 440 kts | 259° |
| 2026-05-05 05:02 | 31.49523 | -130.77234 | 36161 ft | 440 kts | 259° |
| 2026-05-05 05:03 | 31.47607 | -130.84045 | 36165 ft | 440 kts | 259° |
| 2026-05-05 05:03 | 31.45688 | -130.90851 | 36166 ft | 440 kts | 259° |
| 2026-05-05 05:04 | 31.43766 | -130.97653 | 36173 ft | 440 kts | 259° |
| 2026-05-05 05:04 | 31.41837 | -131.04463 | 36173 ft | 441 kts | 259° |
| 2026-05-05 05:05 | 31.39916 | -131.11231 | 36170 ft | 441 kts | 259° |
| 2026-05-05 05:05 | 31.37979 | -131.18036 | 36170 ft | 441 kts | 259° |
| 2026-05-05 05:06 | 31.36038 | -131.24846 | 36173 ft | 441 kts | 258° |
| 2026-05-05 05:06 | 31.34420 | -131.30506 | 36171 ft | 441 kts | 258° |
| 2026-05-05 05:07 | 31.32141 | -131.38464 | 36163 ft | 442 kts | 258° |
| 2026-05-05 05:07 | 31.30513 | -131.44136 | 36169 ft | 442 kts | 258° |
| 2026-05-05 05:08 | 31.28219 | -131.52109 | 36181 ft | 443 kts | 258° |
| 2026-05-05 05:08 | 31.26585 | -131.57775 | 36172 ft | 443 kts | 258° |
| 2026-05-05 05:09 | 31.24612 | -131.64606 | 36173 ft | 443 kts | 258° |
| 2026-05-05 05:09 | 31.22636 | -131.71429 | 36184 ft | 444 kts | 258° |
| 2026-05-05 05:10 | 31.20654 | -131.78258 | 36182 ft | 443 kts | 257° |
| 2026-05-05 05:10 | 31.18670 | -131.85079 | 36187 ft | 444 kts | 257° |
| 2026-05-05 05:11 | 31.16677 | -131.91912 | 36184 ft | 444 kts | 257° |
| 2026-05-05 05:11 | 31.14698 | -131.98687 | 36185 ft | 444 kts | 257° |
| 2026-05-05 05:12 | 31.12697 | -132.05520 | 36184 ft | 444 kts | 257° |
| 2026-05-05 05:12 | 31.10692 | -132.12352 | 36188 ft | 445 kts | 257° |
| 2026-05-05 05:13 | 31.08683 | -132.19180 | 36188 ft | 445 kts | 257° |
| 2026-05-05 05:13 | 31.06667 | -132.26012 | 36203 ft | 445 kts | 257° |
| 2026-05-05 05:14 | 31.04646 | -132.32847 | 36192 ft | 446 kts | 257° |
| 2026-05-05 05:14 | 31.02621 | -132.39681 | 36192 ft | 446 kts | 256° |
| 2026-05-05 05:15 | 31.00591 | -132.46518 | 36199 ft | 447 kts | 256° |
| 2026-05-05 05:15 | 30.98555 | -132.53357 | 36199 ft | 447 kts | 256° |
| 2026-05-05 05:16 | 30.96515 | -132.60195 | 36202 ft | 447 kts | 256° |
| 2026-05-05 05:16 | 30.94485 | -132.66986 | 36196 ft | 446 kts | 256° |
| 2026-05-05 05:17 | 30.92441 | -132.73809 | 36202 ft | 446 kts | 256° |
| 2026-05-05 05:17 | 30.90395 | -132.80625 | 36205 ft | 446 kts | 256° |
| 2026-05-05 05:18 | 30.88346 | -132.87435 | 36207 ft | 446 kts | 256° |
| 2026-05-05 05:18 | 30.86292 | -132.94247 | 36206 ft | 446 kts | 256° |
| 2026-05-05 05:19 | 30.84232 | -133.01063 | 36207 ft | 446 kts | 256° |
| 2026-05-05 05:19 | 30.82170 | -133.07872 | 36214 ft | 446 kts | 256° |
| 2026-05-05 05:20 | 30.80106 | -133.14672 | 36210 ft | 446 kts | 256° |
| 2026-05-05 05:20 | 30.78035 | -133.21482 | 36213 ft | 446 kts | 255° |
| 2026-05-05 05:21 | 30.75958 | -133.28295 | 36214 ft | 447 kts | 255° |
| 2026-05-05 05:21 | 30.73877 | -133.35107 | 36214 ft | 447 kts | 255° |
| 2026-05-05 05:22 | 30.71806 | -133.41872 | 36215 ft | 447 kts | 255° |
| 2026-05-05 05:22 | 30.69720 | -133.48674 | 36219 ft | 447 kts | 255° |
| 2026-05-05 05:23 | 30.67629 | -133.55476 | 36218 ft | 447 kts | 255° |
| 2026-05-05 05:23 | 30.65534 | -133.62274 | 36218 ft | 447 kts | 255° |
| 2026-05-05 05:24 | 30.63439 | -133.69063 | 36221 ft | 447 kts | 255° |
| 2026-05-05 05:24 | 30.61338 | -133.75854 | 36222 ft | 447 kts | 255° |
| 2026-05-05 05:25 | 30.59232 | -133.82645 | 36224 ft | 447 kts | 255° |
| 2026-05-05 05:25 | 30.57124 | -133.89430 | 36226 ft | 447 kts | 255° |
| 2026-05-05 05:26 | 30.55010 | -133.96219 | 36224 ft | 447 kts | 255° |
| 2026-05-05 05:26 | 30.52905 | -134.02968 | 36226 ft | 447 kts | 255° |
| 2026-05-05 05:27 | 30.50783 | -134.09754 | 36229 ft | 447 kts | 255° |
| 2026-05-05 05:27 | 30.47596 | -134.19922 | 36228 ft | 447 kts | 254° |
| 2026-05-05 05:28 | 30.45462 | -134.26711 | 36233 ft | 448 kts | 254° |
| 2026-05-05 05:28 | 30.43327 | -134.33490 | 36237 ft | 448 kts | 254° |
| 2026-05-05 05:29 | 30.41185 | -134.40277 | 36234 ft | 448 kts | 254° |
| 2026-05-05 05:29 | 30.39039 | -134.47063 | 36232 ft | 448 kts | 254° |
| 2026-05-05 05:30 | 30.36890 | -134.53845 | 36230 ft | 448 kts | 254° |
| 2026-05-05 05:30 | 30.34750 | -134.60583 | 36237 ft | 449 kts | 254° |
| 2026-05-05 05:31 | 30.32591 | -134.67367 | 36239 ft | 449 kts | 254° |
| 2026-05-05 05:31 | 30.30429 | -134.74148 | 36253 ft | 449 kts | 254° |
| 2026-05-05 05:32 | 30.28265 | -134.80919 | 36243 ft | 449 kts | 254° |
| 2026-05-05 05:32 | 30.26094 | -134.87701 | 36241 ft | 449 kts | 254° |
| 2026-05-05 05:33 | 30.23921 | -134.94472 | 36240 ft | 449 kts | 254° |
| 2026-05-05 05:33 | 30.21744 | -135.01244 | 36242 ft | 449 kts | 253° |
| 2026-05-05 05:34 | 30.19563 | -135.08015 | 36243 ft | 449 kts | 253° |
| 2026-05-05 05:34 | 30.17374 | -135.14795 | 36248 ft | 450 kts | 253° |
| 2026-05-05 05:35 | 30.15197 | -135.21527 | 36244 ft | 450 kts | 253° |
| 2026-05-05 05:35 | 30.13000 | -135.28303 | 36245 ft | 450 kts | 253° |
| 2026-05-05 05:36 | 30.10803 | -135.35070 | 36245 ft | 450 kts | 253° |
| 2026-05-05 05:36 | 30.08600 | -135.41839 | 36247 ft | 450 kts | 253° |
| 2026-05-05 05:37 | 30.06390 | -135.48616 | 36252 ft | 451 kts | 253° |
| 2026-05-05 05:37 | 30.04176 | -135.55391 | 36249 ft | 451 kts | 253° |
| 2026-05-05 05:38 | 30.01958 | -135.62167 | 36251 ft | 451 kts | 253° |
| 2026-05-05 05:38 | 29.99734 | -135.68944 | 36255 ft | 452 kts | 253° |
| 2026-05-05 05:39 | 29.97518 | -135.75687 | 36247 ft | 452 kts | 253° |
| 2026-05-05 05:39 | 29.95282 | -135.82474 | 36252 ft | 452 kts | 253° |
| 2026-05-05 05:40 | 29.93044 | -135.89254 | 36256 ft | 453 kts | 253° |
| 2026-05-05 05:40 | 29.90800 | -135.96042 | 36255 ft | 453 kts | 253° |
| 2026-05-05 05:41 | 29.88552 | -136.02825 | 36253 ft | 453 kts | 253° |
| 2026-05-05 05:41 | 29.86298 | -136.09611 | 36255 ft | 453 kts | 253° |
| 2026-05-05 05:42 | 29.84041 | -136.16398 | 36255 ft | 454 kts | 253° |
| 2026-05-05 05:42 | 29.81778 | -136.23184 | 36256 ft | 454 kts | 253° |
| 2026-05-05 05:43 | 29.79510 | -136.29976 | 36257 ft | 454 kts | 253° |
| 2026-05-05 05:43 | 29.77238 | -136.36765 | 36259 ft | 454 kts | 252° |
| 2026-05-05 05:44 | 29.74962 | -136.43550 | 36259 ft | 454 kts | 252° |
| 2026-05-05 05:44 | 29.72684 | -136.50332 | 36258 ft | 454 kts | 252° |
| 2026-05-05 05:45 | 29.70401 | -136.57112 | 36262 ft | 455 kts | 252° |
| 2026-05-05 05:45 | 29.68113 | -136.63894 | 36264 ft | 455 kts | 252° |
| 2026-05-05 05:46 | 29.65822 | -136.70671 | 36264 ft | 455 kts | 252° |
| 2026-05-05 05:46 | 29.63528 | -136.77447 | 36264 ft | 455 kts | 252° |
| 2026-05-05 05:47 | 29.61228 | -136.84224 | 36263 ft | 455 kts | 252° |
| 2026-05-05 05:47 | 29.58925 | -136.91000 | 36275 ft | 456 kts | 252° |
| 2026-05-05 05:48 | 29.56631 | -136.97732 | 36278 ft | 456 kts | 252° |
| 2026-05-05 05:48 | 29.54317 | -137.04513 | 36272 ft | 456 kts | 252° |
| 2026-05-05 05:49 | 29.51997 | -137.11295 | 36267 ft | 456 kts | 252° |
| 2026-05-05 05:49 | 29.49675 | -137.18074 | 36270 ft | 456 kts | 252° |
| 2026-05-05 05:50 | 29.47350 | -137.24846 | 36267 ft | 456 kts | 252° |
| 2026-05-05 05:50 | 29.45020 | -137.31619 | 36270 ft | 456 kts | 252° |
| 2026-05-05 05:51 | 29.42688 | -137.38385 | 36266 ft | 456 kts | 252° |
| 2026-05-05 05:51 | 29.40352 | -137.45152 | 36267 ft | 456 kts | 252° |
| 2026-05-05 05:52 | 29.38011 | -137.51919 | 36270 ft | 456 kts | 252° |
| 2026-05-05 05:52 | 29.36065 | -137.57535 | 36270 ft | 456 kts | 252° |
| 2026-05-05 05:53 | 29.33337 | -137.65391 | 36267 ft | 456 kts | 251° |
| 2026-05-05 05:53 | 29.30985 | -137.72150 | 36272 ft | 457 kts | 251° |
| 2026-05-05 05:54 | 29.29012 | -137.77812 | 36270 ft | 457 kts | 251° |
| 2026-05-05 05:54 | 29.26653 | -137.84567 | 36269 ft | 457 kts | 251° |
| 2026-05-05 05:55 | 29.24288 | -137.91327 | 36271 ft | 457 kts | 251° |
| 2026-05-05 05:55 | 29.21921 | -137.98081 | 36270 ft | 457 kts | 251° |
| 2026-05-05 05:56 | 29.19565 | -138.04791 | 36270 ft | 458 kts | 251° |
| 2026-05-05 05:56 | 29.17188 | -138.11547 | 36268 ft | 458 kts | 251° |
| 2026-05-05 05:57 | 29.14807 | -138.18302 | 36277 ft | 458 kts | 251° |
| 2026-05-05 05:57 | 29.12424 | -138.25051 | 36280 ft | 458 kts | 251° |
| 2026-05-05 05:58 | 29.10036 | -138.31800 | 36275 ft | 458 kts | 251° |
| 2026-05-05 05:58 | 29.07643 | -138.38550 | 36275 ft | 458 kts | 251° |
| 2026-05-05 05:59 | 29.05244 | -138.45304 | 36276 ft | 458 kts | 251° |
| 2026-05-05 05:59 | 29.02844 | -138.52049 | 36274 ft | 458 kts | 251° |
| 2026-05-05 06:00 | 29.00436 | -138.58804 | 36276 ft | 459 kts | 251° |
| 2026-05-05 06:00 | 28.98028 | -138.65548 | 36277 ft | 459 kts | 251° |
| 2026-05-05 06:01 | 28.95616 | -138.72288 | 36278 ft | 458 kts | 251° |
| 2026-05-05 06:01 | 28.93216 | -138.78985 | 36275 ft | 459 kts | 251° |
| 2026-05-05 06:02 | 28.90792 | -138.85732 | 36276 ft | 459 kts | 251° |
| 2026-05-05 06:02 | 28.88368 | -138.92471 | 36276 ft | 459 kts | 251° |
| 2026-05-05 06:03 | 28.85940 | -138.99207 | 36318 ft | 461 kts | 251° |
| 2026-05-05 06:03 | 28.84717 | -139.02595 | 36672 ft | 462 kts | 250° |
| 2026-05-05 06:03 | 28.83494 | -139.05980 | 37098 ft | 461 kts | 250° |
| 2026-05-05 06:04 | 28.82270 | -139.09364 | 37515 ft | 461 kts | 250° |
| 2026-05-05 06:04 | 28.81048 | -139.12739 | 37916 ft | 460 kts | 250° |
| 2026-05-05 06:04 | 28.79828 | -139.16109 | 38256 ft | 460 kts | 250° |
| 2026-05-05 06:04 | 28.78605 | -139.19481 | 38260 ft | 458 kts | 250° |
| 2026-05-05 06:05 | 28.76182 | -139.26152 | 38275 ft | 455 kts | 250° |
| 2026-05-05 06:05 | 28.73758 | -139.32817 | 38271 ft | 455 kts | 250° |
| 2026-05-05 06:06 | 28.71328 | -139.39483 | 38271 ft | 455 kts | 250° |
| 2026-05-05 06:06 | 28.68896 | -139.46140 | 38272 ft | 455 kts | 250° |
| 2026-05-05 06:07 | 28.66453 | -139.52790 | 38269 ft | 455 kts | 250° |
| 2026-05-05 06:07 | 28.64024 | -139.59404 | 38275 ft | 456 kts | 250° |
| 2026-05-05 06:08 | 28.61571 | -139.66061 | 38275 ft | 456 kts | 250° |
| 2026-05-05 06:08 | 28.59116 | -139.72718 | 38277 ft | 456 kts | 250° |
| 2026-05-05 06:09 | 28.56655 | -139.79378 | 38270 ft | 457 kts | 250° |
| 2026-05-05 06:09 | 28.54188 | -139.86043 | 38271 ft | 456 kts | 250° |
| 2026-05-05 06:10 | 28.51720 | -139.92696 | 38273 ft | 457 kts | 250° |
| 2026-05-05 06:10 | 28.49250 | -139.99345 | 38274 ft | 457 kts | 250° |
| 2026-05-05 06:11 | 28.46774 | -140.05998 | 38274 ft | 457 kts | 250° |
| 2026-05-05 06:11 | 28.44296 | -140.12644 | 38279 ft | 457 kts | 250° |
| 2026-05-05 06:12 | 28.41814 | -140.19290 | 38271 ft | 457 kts | 250° |
| 2026-05-05 06:12 | 28.39343 | -140.25894 | 38269 ft | 457 kts | 249° |
| 2026-05-05 06:13 | 28.36852 | -140.32541 | 38276 ft | 458 kts | 249° |
| 2026-05-05 06:13 | 28.34357 | -140.39184 | 38275 ft | 458 kts | 249° |
| 2026-05-05 06:14 | 28.31856 | -140.45836 | 38274 ft | 458 kts | 249° |
| 2026-05-05 06:14 | 28.29353 | -140.52477 | 38278 ft | 458 kts | 249° |
| 2026-05-05 06:15 | 28.26846 | -140.59120 | 38277 ft | 458 kts | 249° |
| 2026-05-05 06:15 | 28.24333 | -140.65764 | 38274 ft | 458 kts | 249° |
| 2026-05-05 06:16 | 28.21821 | -140.72398 | 38276 ft | 458 kts | 249° |
| 2026-05-05 06:16 | 28.19303 | -140.79033 | 38273 ft | 458 kts | 249° |
| 2026-05-05 06:17 | 28.16782 | -140.85667 | 38274 ft | 458 kts | 249° |
| 2026-05-05 06:17 | 28.14256 | -140.92299 | 38275 ft | 458 kts | 249° |
| 2026-05-05 06:18 | 28.11728 | -140.98929 | 38275 ft | 458 kts | 249° |
| 2026-05-05 06:18 | 28.09211 | -141.05515 | 38274 ft | 458 kts | 249° |
| 2026-05-05 06:19 | 28.06675 | -141.12141 | 38273 ft | 458 kts | 249° |
| 2026-05-05 06:19 | 28.04135 | -141.18766 | 38277 ft | 458 kts | 249° |
| 2026-05-05 06:20 | 28.01590 | -141.25393 | 38272 ft | 458 kts | 249° |
| 2026-05-05 06:20 | 27.99045 | -141.32007 | 38273 ft | 459 kts | 249° |
| 2026-05-05 06:21 | 27.96495 | -141.38623 | 38272 ft | 458 kts | 249° |
| 2026-05-05 06:21 | 27.93944 | -141.45232 | 38272 ft | 458 kts | 249° |
| 2026-05-05 06:22 | 27.91388 | -141.51843 | 38269 ft | 459 kts | 249° |
| 2026-05-05 06:22 | 27.88845 | -141.58407 | 38269 ft | 458 kts | 249° |
| 2026-05-05 06:23 | 27.86284 | -141.65006 | 38271 ft | 458 kts | 248° |
| 2026-05-05 06:23 | 27.83722 | -141.71598 | 38271 ft | 458 kts | 248° |
| 2026-05-05 06:24 | 27.81158 | -141.78183 | 38269 ft | 458 kts | 248° |
| 2026-05-05 06:24 | 27.78591 | -141.84765 | 38267 ft | 458 kts | 248° |
| 2026-05-05 06:25 | 27.76032 | -141.91315 | 38272 ft | 457 kts | 248° |
| 2026-05-05 06:25 | 27.73461 | -141.97885 | 38269 ft | 458 kts | 248° |
| 2026-05-05 06:26 | 27.70885 | -142.04457 | 38267 ft | 458 kts | 248° |
| 2026-05-05 06:26 | 27.68290 | -142.11067 | 38264 ft | 458 kts | 248° |
| 2026-05-05 06:27 | 27.64431 | -142.20876 | 38284 ft | 457 kts | 248° |
| 2026-05-05 06:28 | 27.61848 | -142.27426 | 38280 ft | 457 kts | 248° |
| 2026-05-05 06:28 | 27.59260 | -142.33981 | 38267 ft | 457 kts | 248° |
| 2026-05-05 06:29 | 27.56685 | -142.40489 | 38264 ft | 457 kts | 248° |
| 2026-05-05 06:29 | 27.54093 | -142.47030 | 38274 ft | 457 kts | 248° |
| 2026-05-05 06:30 | 27.51499 | -142.53566 | 38269 ft | 456 kts | 248° |
| 2026-05-05 06:30 | 27.48905 | -142.60092 | 38273 ft | 456 kts | 248° |
| 2026-05-05 06:31 | 27.46311 | -142.66606 | 38272 ft | 455 kts | 248° |
| 2026-05-05 06:31 | 27.43720 | -142.73101 | 38271 ft | 455 kts | 248° |
| 2026-05-05 06:32 | 27.41126 | -142.79596 | 38270 ft | 455 kts | 248° |
| 2026-05-05 06:32 | 27.38527 | -142.86090 | 38271 ft | 455 kts | 248° |
| 2026-05-05 06:33 | 27.35927 | -142.92577 | 38269 ft | 455 kts | 248° |
| 2026-05-05 06:33 | 27.33323 | -142.99065 | 38272 ft | 455 kts | 248° |
| 2026-05-05 06:34 | 27.30718 | -143.05542 | 38270 ft | 455 kts | 248° |
| 2026-05-05 06:34 | 27.28550 | -143.10925 | 38266 ft | 454 kts | 248° |
| 2026-05-05 06:35 | 27.25519 | -143.18442 | 38261 ft | 454 kts | 248° |
| 2026-05-05 06:35 | 27.22908 | -143.24903 | 38265 ft | 454 kts | 248° |
| 2026-05-05 06:36 | 27.20295 | -143.31358 | 38265 ft | 454 kts | 248° |
| 2026-05-05 06:36 | 27.18123 | -143.36719 | 38263 ft | 454 kts | 248° |
| 2026-05-05 06:37 | 27.15064 | -143.44254 | 38267 ft | 454 kts | 248° |
| 2026-05-05 06:37 | 27.12444 | -143.50697 | 38264 ft | 453 kts | 248° |
| 2026-05-05 06:38 | 27.09822 | -143.57135 | 38258 ft | 454 kts | 248° |
| 2026-05-05 06:38 | 27.07640 | -143.62485 | 38262 ft | 454 kts | 248° |
| 2026-05-05 06:39 | 27.05012 | -143.68919 | 38259 ft | 453 kts | 248° |
| 2026-05-05 06:39 | 27.02384 | -143.75342 | 38264 ft | 453 kts | 248° |
| 2026-05-05 06:40 | 26.99754 | -143.81761 | 38260 ft | 453 kts | 248° |
| 2026-05-05 06:40 | 26.97124 | -143.88169 | 38257 ft | 453 kts | 248° |
| 2026-05-05 06:41 | 26.94489 | -143.94579 | 38265 ft | 453 kts | 248° |
| 2026-05-05 06:41 | 26.91852 | -144.00983 | 38261 ft | 453 kts | 248° |
| 2026-05-05 06:42 | 26.89213 | -144.07386 | 38260 ft | 453 kts | 248° |
| 2026-05-05 06:42 | 26.86569 | -144.13787 | 38260 ft | 453 kts | 248° |
| 2026-05-05 06:43 | 26.83924 | -144.20182 | 38257 ft | 453 kts | 248° |
| 2026-05-05 06:43 | 26.81277 | -144.26572 | 38257 ft | 453 kts | 248° |
| 2026-05-05 06:44 | 26.78624 | -144.32966 | 38255 ft | 452 kts | 247° |
| 2026-05-05 06:44 | 26.75972 | -144.39347 | 38256 ft | 452 kts | 247° |
| 2026-05-05 06:45 | 26.73319 | -144.45721 | 38257 ft | 452 kts | 247° |
| 2026-05-05 06:45 | 26.70664 | -144.52091 | 38255 ft | 452 kts | 247° |
| 2026-05-05 06:46 | 26.68004 | -144.58462 | 38258 ft | 452 kts | 247° |
| 2026-05-05 06:46 | 26.65342 | -144.64829 | 38258 ft | 452 kts | 247° |
| 2026-05-05 06:47 | 26.62676 | -144.71195 | 38258 ft | 452 kts | 247° |
| 2026-05-05 06:47 | 26.60025 | -144.77516 | 38254 ft | 452 kts | 247° |
| 2026-05-05 06:48 | 26.57354 | -144.83877 | 38250 ft | 452 kts | 247° |
| 2026-05-05 06:48 | 26.54679 | -144.90234 | 38248 ft | 452 kts | 247° |
| 2026-05-05 06:49 | 26.51984 | -144.96630 | 38250 ft | 452 kts | 247° |
| 2026-05-05 06:49 | 26.49324 | -145.02936 | 38250 ft | 452 kts | 247° |
| 2026-05-05 06:50 | 26.46640 | -145.09287 | 38252 ft | 452 kts | 247° |
| 2026-05-05 06:50 | 26.43951 | -145.15639 | 38246 ft | 453 kts | 247° |
| 2026-05-05 06:51 | 26.41263 | -145.21983 | 38245 ft | 452 kts | 247° |
| 2026-05-05 06:51 | 26.38569 | -145.28327 | 38243 ft | 452 kts | 247° |
| 2026-05-05 06:52 | 26.35874 | -145.34667 | 38244 ft | 452 kts | 247° |
| 2026-05-05 06:52 | 26.33178 | -145.40997 | 38244 ft | 452 kts | 247° |
| 2026-05-05 06:53 | 26.30480 | -145.47326 | 38242 ft | 452 kts | 247° |
| 2026-05-05 06:53 | 26.27782 | -145.53643 | 38241 ft | 451 kts | 247° |
| 2026-05-05 06:54 | 26.25084 | -145.59952 | 38237 ft | 451 kts | 247° |
| 2026-05-05 06:54 | 26.22387 | -145.66247 | 38241 ft | 450 kts | 247° |
| 2026-05-05 06:55 | 26.19690 | -145.72535 | 38237 ft | 450 kts | 247° |
| 2026-05-05 06:55 | 26.16992 | -145.78816 | 38237 ft | 450 kts | 247° |
| 2026-05-05 06:56 | 26.14290 | -145.85095 | 38239 ft | 450 kts | 247° |
| 2026-05-05 06:56 | 26.11589 | -145.91365 | 38236 ft | 449 kts | 247° |
| 2026-05-05 06:57 | 26.08886 | -145.97628 | 38237 ft | 449 kts | 247° |
| 2026-05-05 06:57 | 26.06181 | -146.03888 | 38232 ft | 449 kts | 246° |
| 2026-05-05 06:58 | 26.03477 | -146.10135 | 38244 ft | 448 kts | 246° |
| 2026-05-05 06:58 | 26.00767 | -146.16389 | 38237 ft | 449 kts | 246° |
| 2026-05-05 06:59 | 25.98077 | -146.22596 | 38237 ft | 449 kts | 246° |
| 2026-05-05 06:59 | 25.95368 | -146.28843 | 38233 ft | 449 kts | 246° |
| 2026-05-05 07:00 | 25.92657 | -146.35082 | 38229 ft | 448 kts | 246° |
| 2026-05-05 07:00 | 25.89943 | -146.41320 | 38229 ft | 449 kts | 246° |
| 2026-05-05 07:01 | 25.87225 | -146.47556 | 38226 ft | 449 kts | 246° |
| 2026-05-05 07:01 | 25.84507 | -146.53787 | 38231 ft | 448 kts | 246° |
| 2026-05-05 07:02 | 25.81785 | -146.60014 | 38226 ft | 448 kts | 246° |
| 2026-05-05 07:02 | 25.79062 | -146.66237 | 38222 ft | 448 kts | 246° |
| 2026-05-05 07:03 | 25.76337 | -146.72455 | 38231 ft | 448 kts | 246° |
| 2026-05-05 07:03 | 25.73611 | -146.78666 | 38226 ft | 448 kts | 246° |
| 2026-05-05 07:04 | 25.70888 | -146.84863 | 38231 ft | 447 kts | 246° |
| 2026-05-05 07:04 | 25.68162 | -146.91056 | 38227 ft | 447 kts | 246° |
| 2026-05-05 07:05 | 25.65436 | -146.97242 | 38224 ft | 447 kts | 246° |
| 2026-05-05 07:05 | 25.62707 | -147.03424 | 38223 ft | 446 kts | 246° |
| 2026-05-05 07:06 | 25.59975 | -147.09606 | 38218 ft | 447 kts | 246° |
| 2026-05-05 07:06 | 25.57242 | -147.15781 | 38220 ft | 446 kts | 246° |
| 2026-05-05 07:07 | 25.54525 | -147.21910 | 38220 ft | 446 kts | 246° |
| 2026-05-05 07:07 | 25.51788 | -147.28077 | 38219 ft | 446 kts | 246° |
| 2026-05-05 07:08 | 25.49049 | -147.34240 | 38221 ft | 446 kts | 246° |
| 2026-05-05 07:08 | 25.46305 | -147.40404 | 38215 ft | 446 kts | 246° |
| 2026-05-05 07:09 | 25.43563 | -147.46557 | 38214 ft | 446 kts | 246° |
| 2026-05-05 07:09 | 25.40818 | -147.52707 | 38219 ft | 446 kts | 246° |
| 2026-05-05 07:10 | 25.38070 | -147.58856 | 38215 ft | 446 kts | 246° |
| 2026-05-05 07:10 | 25.35321 | -147.64996 | 38220 ft | 445 kts | 246° |
| 2026-05-05 07:11 | 25.32573 | -147.71129 | 38212 ft | 445 kts | 246° |
| 2026-05-05 07:11 | 25.29823 | -147.77257 | 38213 ft | 445 kts | 246° |
| 2026-05-05 07:12 | 25.27071 | -147.83380 | 38210 ft | 445 kts | 246° |
| 2026-05-05 07:12 | 25.24314 | -147.89505 | 38211 ft | 445 kts | 246° |
| 2026-05-05 07:13 | 25.21555 | -147.95628 | 38215 ft | 445 kts | 246° |
| 2026-05-05 07:13 | 25.18794 | -148.01746 | 38212 ft | 445 kts | 246° |
| 2026-05-05 07:14 | 25.16031 | -148.07860 | 38220 ft | 445 kts | 246° |
| 2026-05-05 07:14 | 25.13265 | -148.13974 | 38211 ft | 445 kts | 246° |
| 2026-05-05 07:15 | 25.10514 | -148.20045 | 38212 ft | 445 kts | 246° |
| 2026-05-05 07:15 | 25.07743 | -148.26151 | 38211 ft | 445 kts | 246° |
| 2026-05-05 07:16 | 25.04968 | -148.32259 | 38208 ft | 445 kts | 246° |
| 2026-05-05 07:16 | 25.02193 | -148.38359 | 38203 ft | 445 kts | 246° |
| 2026-05-05 07:17 | 24.99413 | -148.44461 | 38201 ft | 445 kts | 246° |
| 2026-05-05 07:17 | 24.96630 | -148.50562 | 38208 ft | 445 kts | 246° |
| 2026-05-05 07:18 | 24.93846 | -148.56656 | 38206 ft | 445 kts | 246° |
| 2026-05-05 07:18 | 24.91059 | -148.62750 | 38201 ft | 445 kts | 246° |
| 2026-05-05 07:19 | 24.88269 | -148.68840 | 38207 ft | 445 kts | 246° |
| 2026-05-05 07:19 | 24.85478 | -148.74927 | 38203 ft | 445 kts | 246° |
| 2026-05-05 07:20 | 24.82683 | -148.81013 | 38201 ft | 445 kts | 246° |
| 2026-05-05 07:20 | 24.79886 | -148.87094 | 38200 ft | 445 kts | 246° |
| 2026-05-05 07:21 | 24.77088 | -148.93171 | 38199 ft | 445 kts | 246° |
| 2026-05-05 07:21 | 24.74287 | -148.99246 | 38201 ft | 445 kts | 246° |
| 2026-05-05 07:22 | 24.71484 | -149.05317 | 38199 ft | 445 kts | 246° |
| 2026-05-05 07:22 | 24.69162 | -149.10340 | 38198 ft | 445 kts | 246° |
| 2026-05-05 07:23 | 24.65882 | -149.17427 | 38201 ft | 445 kts | 245° |
| 2026-05-05 07:23 | 24.63074 | -149.23485 | 38196 ft | 445 kts | 245° |
| 2026-05-05 07:24 | 24.60261 | -149.29544 | 38198 ft | 445 kts | 245° |
| 2026-05-05 07:24 | 24.57925 | -149.34573 | 38200 ft | 445 kts | 245° |
| 2026-05-05 07:25 | 24.54652 | -149.41606 | 38197 ft | 445 kts | 245° |
| 2026-05-05 07:25 | 24.52295 | -149.46666 | 38198 ft | 444 kts | 245° |
| 2026-05-05 07:26 | 24.49477 | -149.52706 | 38196 ft | 444 kts | 245° |
| 2026-05-05 07:26 | 24.46662 | -149.58735 | 38193 ft | 444 kts | 245° |
| 2026-05-05 07:27 | 24.43843 | -149.64761 | 38193 ft | 444 kts | 245° |
| 2026-05-05 07:27 | 24.41041 | -149.70745 | 38196 ft | 444 kts | 245° |
| 2026-05-05 07:28 | 24.38217 | -149.76769 | 38200 ft | 444 kts | 245° |
| 2026-05-05 07:28 | 24.35389 | -149.82792 | 38199 ft | 444 kts | 245° |
| 2026-05-05 07:29 | 24.32559 | -149.88812 | 38196 ft | 444 kts | 245° |
| 2026-05-05 07:29 | 24.29727 | -149.94827 | 38195 ft | 444 kts | 245° |
| 2026-05-05 07:30 | 24.26893 | -150.00841 | 38194 ft | 444 kts | 245° |
| 2026-05-05 07:30 | 24.22636 | -150.09859 | 38193 ft | 444 kts | 245° |
| 2026-05-05 07:31 | 24.19798 | -150.15862 | 38189 ft | 444 kts | 245° |
| 2026-05-05 07:31 | 24.16956 | -150.21865 | 38189 ft | 444 kts | 245° |
| 2026-05-05 07:32 | 24.14112 | -150.27865 | 38192 ft | 444 kts | 245° |
| 2026-05-05 07:32 | 24.11323 | -150.33741 | 38190 ft | 444 kts | 245° |
| 2026-05-05 07:33 | 24.08474 | -150.39737 | 38182 ft | 444 kts | 245° |
| 2026-05-05 07:33 | 24.05624 | -150.45727 | 38188 ft | 444 kts | 245° |
| 2026-05-05 07:34 | 24.02770 | -150.51718 | 38187 ft | 444 kts | 245° |
| 2026-05-05 07:34 | 23.99915 | -150.57703 | 38190 ft | 444 kts | 245° |
| 2026-05-05 07:35 | 23.97060 | -150.63680 | 38187 ft | 443 kts | 245° |
| 2026-05-05 07:35 | 23.94204 | -150.69653 | 38190 ft | 443 kts | 245° |
| 2026-05-05 07:36 | 23.91343 | -150.75627 | 38191 ft | 443 kts | 245° |
| 2026-05-05 07:36 | 23.88502 | -150.81554 | 38183 ft | 444 kts | 245° |
| 2026-05-05 07:37 | 23.85620 | -150.87559 | 38183 ft | 443 kts | 245° |
| 2026-05-05 07:37 | 23.82773 | -150.93482 | 38183 ft | 443 kts | 245° |
| 2026-05-05 07:38 | 23.79906 | -150.99441 | 38178 ft | 443 kts | 245° |
| 2026-05-05 07:38 | 23.77037 | -151.05396 | 38185 ft | 443 kts | 245° |
| 2026-05-05 07:39 | 23.74165 | -151.11350 | 38194 ft | 443 kts | 245° |
| 2026-05-05 07:39 | 23.71288 | -151.17306 | 38192 ft | 444 kts | 245° |
| 2026-05-05 07:40 | 23.68409 | -151.23259 | 38188 ft | 444 kts | 245° |
| 2026-05-05 07:40 | 23.65528 | -151.29210 | 38183 ft | 444 kts | 245° |
| 2026-05-05 07:41 | 23.62642 | -151.35163 | 38183 ft | 444 kts | 245° |
| 2026-05-05 07:41 | 23.59754 | -151.41113 | 38181 ft | 444 kts | 245° |
| 2026-05-05 07:42 | 23.56864 | -151.47061 | 38178 ft | 444 kts | 244° |
| 2026-05-05 07:42 | 23.53973 | -151.53002 | 38178 ft | 444 kts | 244° |
| 2026-05-05 07:43 | 23.51077 | -151.58948 | 38181 ft | 444 kts | 244° |
| 2026-05-05 07:43 | 23.48179 | -151.64890 | 38180 ft | 444 kts | 244° |
| 2026-05-05 07:44 | 23.45277 | -151.70832 | 38176 ft | 444 kts | 244° |
| 2026-05-05 07:44 | 23.42373 | -151.76772 | 38182 ft | 444 kts | 244° |
| 2026-05-05 07:45 | 23.39466 | -151.82711 | 38177 ft | 444 kts | 244° |
| 2026-05-05 07:45 | 23.36555 | -151.88648 | 38177 ft | 444 kts | 244° |
| 2026-05-05 07:46 | 23.33642 | -151.94585 | 38174 ft | 444 kts | 244° |
| 2026-05-05 07:46 | 23.30727 | -152.00520 | 38175 ft | 445 kts | 244° |
| 2026-05-05 07:47 | 23.27809 | -152.06451 | 38173 ft | 445 kts | 244° |
| 2026-05-05 07:47 | 23.24887 | -152.12386 | 38175 ft | 445 kts | 244° |
| 2026-05-05 07:48 | 23.21964 | -152.18312 | 38176 ft | 445 kts | 244° |
| 2026-05-05 07:48 | 23.19056 | -152.24205 | 38175 ft | 445 kts | 244° |
| 2026-05-05 07:49 | 23.16106 | -152.30172 | 38171 ft | 446 kts | 244° |
| 2026-05-05 07:49 | 23.13190 | -152.36065 | 38170 ft | 446 kts | 244° |
| 2026-05-05 07:50 | 23.10256 | -152.41987 | 38170 ft | 445 kts | 244° |
| 2026-05-05 07:50 | 23.07314 | -152.47919 | 38169 ft | 446 kts | 244° |
| 2026-05-05 07:51 | 23.04369 | -152.53849 | 38168 ft | 446 kts | 244° |
| 2026-05-05 07:51 | 23.01419 | -152.59778 | 38166 ft | 447 kts | 244° |
| 2026-05-05 07:52 | 22.98444 | -152.65699 | 38166 ft | 447 kts | 244° |
| 2026-05-05 07:52 | 22.95474 | -152.71624 | 38166 ft | 447 kts | 244° |
| 2026-05-05 07:53 | 22.92502 | -152.77539 | 38160 ft | 447 kts | 244° |
| 2026-05-05 07:53 | 22.89526 | -152.83457 | 38166 ft | 447 kts | 244° |
| 2026-05-05 07:54 | 22.86547 | -152.89372 | 38161 ft | 447 kts | 244° |
| 2026-05-05 07:54 | 22.83562 | -152.95293 | 38163 ft | 447 kts | 244° |
| 2026-05-05 07:55 | 22.80574 | -153.01213 | 38163 ft | 448 kts | 244° |
| 2026-05-05 07:55 | 22.77583 | -153.07132 | 38168 ft | 448 kts | 244° |
| 2026-05-05 07:56 | 22.74588 | -153.13053 | 38162 ft | 448 kts | 243° |
| 2026-05-05 07:56 | 22.71589 | -153.18973 | 38165 ft | 448 kts | 243° |
| 2026-05-05 07:57 | 22.68588 | -153.24891 | 38164 ft | 449 kts | 243° |
| 2026-05-05 07:57 | 22.65583 | -153.30811 | 38160 ft | 449 kts | 243° |
| 2026-05-05 07:58 | 22.62596 | -153.36687 | 38166 ft | 449 kts | 243° |
| 2026-05-05 07:58 | 22.59583 | -153.42609 | 38162 ft | 449 kts | 243° |
| 2026-05-05 07:59 | 22.56565 | -153.48532 | 38160 ft | 449 kts | 243° |
| 2026-05-05 07:59 | 22.53544 | -153.54455 | 38157 ft | 450 kts | 243° |
| 2026-05-05 08:00 | 22.50520 | -153.60377 | 38158 ft | 450 kts | 243° |
| 2026-05-05 08:00 | 22.47497 | -153.66291 | 38157 ft | 450 kts | 243° |
| 2026-05-05 08:01 | 22.44469 | -153.72207 | 38158 ft | 450 kts | 243° |
| 2026-05-05 08:01 | 22.41437 | -153.78124 | 38154 ft | 450 kts | 243° |
| 2026-05-05 08:02 | 22.38407 | -153.84032 | 38158 ft | 450 kts | 243° |
| 2026-05-05 08:02 | 22.35944 | -153.90192 | 38177 ft | 447 kts | 257° |
| 2026-05-05 08:03 | 22.34609 | -153.96734 | 38173 ft | 446 kts | 258° |
| 2026-05-05 08:03 | 22.33299 | -154.03281 | 38170 ft | 446 kts | 258° |
| 2026-05-05 08:04 | 22.31985 | -154.09839 | 38167 ft | 447 kts | 258° |
| 2026-05-05 08:04 | 22.30668 | -154.16393 | 38165 ft | 447 kts | 258° |
| 2026-05-05 08:05 | 22.29349 | -154.22945 | 38168 ft | 447 kts | 258° |
| 2026-05-05 08:05 | 22.28037 | -154.29449 | 38167 ft | 446 kts | 258° |
| 2026-05-05 08:06 | 22.26713 | -154.35997 | 38165 ft | 446 kts | 258° |
| 2026-05-05 08:06 | 22.25386 | -154.42546 | 38162 ft | 446 kts | 258° |
| 2026-05-05 08:07 | 22.24056 | -154.49092 | 38161 ft | 446 kts | 258° |
| 2026-05-05 08:07 | 22.22724 | -154.55637 | 38156 ft | 446 kts | 258° |
| 2026-05-05 08:08 | 22.21391 | -154.62176 | 38161 ft | 446 kts | 258° |
| 2026-05-05 08:08 | 22.20053 | -154.68720 | 38158 ft | 446 kts | 258° |
| 2026-05-05 08:09 | 22.18713 | -154.75264 | 38155 ft | 446 kts | 258° |
| 2026-05-05 08:09 | 22.17371 | -154.81801 | 38156 ft | 446 kts | 258° |
| 2026-05-05 08:10 | 22.16027 | -154.88335 | 38154 ft | 446 kts | 258° |
| 2026-05-05 08:10 | 22.14680 | -154.94864 | 38153 ft | 446 kts | 258° |
| 2026-05-05 08:11 | 22.13335 | -155.01376 | 38148 ft | 444 kts | 258° |
| 2026-05-05 08:11 | 22.11990 | -155.07871 | 38145 ft | 444 kts | 258° |
| 2026-05-05 08:12 | 22.10652 | -155.14324 | 38141 ft | 444 kts | 258° |
| 2026-05-05 08:12 | 22.09302 | -155.20819 | 38143 ft | 444 kts | 258° |
| 2026-05-05 08:13 | 22.08169 | -155.26259 | 38138 ft | 444 kts | 258° |
| 2026-05-05 08:13 | 22.06813 | -155.32753 | 38137 ft | 444 kts | 258° |
| 2026-05-05 08:14 | 22.05454 | -155.39254 | 38142 ft | 444 kts | 258° |
| 2026-05-05 08:14 | 22.04093 | -155.45748 | 38138 ft | 444 kts | 258° |
| 2026-05-05 08:15 | 22.02729 | -155.52243 | 38135 ft | 444 kts | 258° |
| 2026-05-05 08:15 | 22.01363 | -155.58736 | 38138 ft | 444 kts | 258° |
| 2026-05-05 08:16 | 21.99993 | -155.65229 | 38135 ft | 444 kts | 258° |
| 2026-05-05 08:16 | 21.98654 | -155.71567 | 38138 ft | 444 kts | 257° |
| 2026-05-05 08:17 | 21.97290 | -155.78014 | 38137 ft | 444 kts | 257° |
| 2026-05-05 08:17 | 21.95912 | -155.84508 | 38131 ft | 445 kts | 257° |
| 2026-05-05 08:18 | 21.94532 | -155.90999 | 38134 ft | 444 kts | 257° |
| 2026-05-05 08:18 | 21.93151 | -155.97482 | 38133 ft | 444 kts | 257° |
| 2026-05-05 08:19 | 21.91765 | -156.03972 | 38132 ft | 444 kts | 257° |
| 2026-05-05 08:19 | 21.90378 | -156.10459 | 38132 ft | 444 kts | 257° |
| 2026-05-05 08:20 | 21.88989 | -156.16939 | 38130 ft | 444 kts | 257° |
| 2026-05-05 08:20 | 21.87597 | -156.23422 | 38131 ft | 444 kts | 257° |
| 2026-05-05 08:21 | 21.86202 | -156.29901 | 38124 ft | 442 kts | 257° |
| 2026-05-05 08:21 | 21.84823 | -156.36316 | 37836 ft | 439 kts | 257° |
| 2026-05-05 08:22 | 21.84123 | -156.39560 | 36521 ft | 444 kts | 257° |
| 2026-05-05 08:22 | 21.83421 | -156.42818 | 35517 ft | 449 kts | 258° |
| 2026-05-05 08:22 | 21.82711 | -156.46104 | 34709 ft | 450 kts | 258° |
| 2026-05-05 08:22 | 21.82011 | -156.49342 | 34185 ft | 454 kts | 258° |
| 2026-05-05 08:23 | 21.81276 | -156.52744 | 33575 ft | 464 kts | 258° |
| 2026-05-05 08:23 | 21.80553 | -156.56081 | 33002 ft | 464 kts | 258° |
| 2026-05-05 08:23 | 21.80305 | -156.57224 | 32786 ft | 465 kts | 258° |
| 2026-05-05 08:24 | 21.80041 | -156.58439 | 32594 ft | 466 kts | 258° |
| 2026-05-05 08:24 | 21.79303 | -156.61839 | 32003 ft | 468 kts | 258° |
| 2026-05-05 08:24 | 21.78560 | -156.65262 | 31424 ft | 471 kts | 258° |
| 2026-05-05 08:24 | 21.77812 | -156.68703 | 30834 ft | 473 kts | 257° |
| 2026-05-05 08:25 | 21.77059 | -156.72159 | 30242 ft | 475 kts | 257° |
| 2026-05-05 08:25 | 21.76305 | -156.75619 | 29601 ft | 473 kts | 257° |
| 2026-05-05 08:25 | 21.75557 | -156.79050 | 29014 ft | 469 kts | 257° |
| 2026-05-05 08:25 | 21.74814 | -156.82453 | 28431 ft | 465 kts | 257° |
| 2026-05-05 08:26 | 21.74085 | -156.85789 | 27850 ft | 462 kts | 257° |
| 2026-05-05 08:26 | 21.73350 | -156.89148 | 27279 ft | 460 kts | 257° |
| 2026-05-05 08:26 | 21.72620 | -156.92482 | 26709 ft | 457 kts | 257° |
| 2026-05-05 08:26 | 21.71893 | -156.95797 | 26139 ft | 454 kts | 257° |
| 2026-05-05 08:27 | 21.71170 | -156.99094 | 25576 ft | 451 kts | 257° |
| 2026-05-05 08:27 | 21.70451 | -157.02365 | 25014 ft | 446 kts | 257° |
| 2026-05-05 08:27 | 21.69745 | -157.05573 | 24459 ft | 437 kts | 256° |
| 2026-05-05 08:27 | 21.69052 | -157.08725 | 23919 ft | 428 kts | 256° |
| 2026-05-05 08:28 | 21.68371 | -157.11815 | 23352 ft | 420 kts | 256° |
| 2026-05-05 08:28 | 21.67706 | -157.14828 | 22824 ft | 409 kts | 256° |
| 2026-05-05 08:28 | 21.66856 | -157.17706 | 22329 ft | 399 kts | 246° |
| 2026-05-05 08:28 | 21.65542 | -157.20276 | 21824 ft | 385 kts | 235° |
| 2026-05-05 08:29 | 21.63916 | -157.22478 | 21354 ft | 370 kts | 231° |
| 2026-05-05 08:29 | 21.62287 | -157.24579 | 20907 ft | 362 kts | 231° |
| 2026-05-05 08:29 | 21.60685 | -157.26637 | 20443 ft | 357 kts | 231° |
| 2026-05-05 08:30 | 21.57583 | -157.30611 | 19583 ft | 352 kts | 231° |
| 2026-05-05 08:30 | 21.56015 | -157.32622 | 19133 ft | 350 kts | 231° |
| 2026-05-05 08:30 | 21.54453 | -157.34625 | 18712 ft | 348 kts | 231° |
| 2026-05-05 08:30 | 21.52918 | -157.36591 | 18159 ft | 348 kts | 231° |
| 2026-05-05 08:31 | 21.51376 | -157.38567 | 17692 ft | 342 kts | 231° |
| 2026-05-05 08:31 | 21.49850 | -157.40519 | 17265 ft | 340 kts | 231° |
| 2026-05-05 08:31 | 21.48331 | -157.42463 | 16836 ft | 339 kts | 231° |
| 2026-05-05 08:31 | 21.46811 | -157.44407 | 16402 ft | 331 kts | 232° |
| 2026-05-05 08:32 | 21.45388 | -157.46226 | 16001 ft | 323 kts | 232° |
| 2026-05-05 08:32 | 21.43961 | -157.48051 | 15612 ft | 315 kts | 232° |
| 2026-05-05 08:32 | 21.42567 | -157.49832 | 15221 ft | 308 kts | 232° |
| 2026-05-05 08:32 | 21.41387 | -157.51702 | 14855 ft | 302 kts | 248° |
| 2026-05-05 08:33 | 21.40578 | -157.53786 | 14452 ft | 302 kts | 249° |
| 2026-05-05 08:33 | 21.39626 | -157.55782 | 14101 ft | 302 kts | 236° |
| 2026-05-05 08:33 | 21.38309 | -157.57540 | 13703 ft | 302 kts | 230° |
| 2026-05-05 08:33 | 21.36898 | -157.59200 | 13342 ft | 300 kts | 229° |
| 2026-05-05 08:34 | 21.35462 | -157.60838 | 12992 ft | 301 kts | 228° |
| 2026-05-05 08:34 | 21.34025 | -157.62469 | 12641 ft | 301 kts | 228° |
| 2026-05-05 08:34 | 21.32821 | -157.64271 | 12311 ft | 297 kts | 248° |
| 2026-05-05 08:34 | 21.32161 | -157.66372 | 11924 ft | 297 kts | 256° |
| 2026-05-05 08:35 | 21.31691 | -157.68526 | 11561 ft | 295 kts | 258° |
| 2026-05-05 08:35 | 21.31283 | -157.70652 | 11203 ft | 287 kts | 259° |
| 2026-05-05 08:35 | 21.30903 | -157.72725 | 10855 ft | 280 kts | 259° |
| 2026-05-05 08:35 | 21.30539 | -157.74732 | 10513 ft | 279 kts | 259° |
| 2026-05-05 08:36 | 21.30167 | -157.76801 | 10190 ft | 283 kts | 259° |
| 2026-05-05 08:36 | 21.29797 | -157.78873 | 9821 ft | 279 kts | 259° |
| 2026-05-05 08:36 | 21.29475 | -157.80891 | 9480 ft | 271 kts | 263° |
| 2026-05-05 08:36 | 21.29245 | -157.82881 | 9154 ft | 268 kts | 261° |
| 2026-05-05 08:37 | 21.28817 | -157.84814 | 8841 ft | 266 kts | 250° |
| 2026-05-05 08:37 | 21.27887 | -157.86499 | 8534 ft | 264 kts | 227° |
| 2026-05-05 08:37 | 21.26609 | -157.87895 | 8191 ft | 260 kts | 224° |
| 2026-05-05 08:37 | 21.25343 | -157.89254 | 7889 ft | 255 kts | 225° |
| 2026-05-05 08:38 | 21.24110 | -157.90588 | 7594 ft | 249 kts | 224° |
| 2026-05-05 08:38 | 21.22896 | -157.91900 | 7306 ft | 245 kts | 224° |
| 2026-05-05 08:38 | 21.21700 | -157.93197 | 7006 ft | 243 kts | 225° |
| 2026-05-05 08:38 | 21.20595 | -157.94541 | 6731 ft | 235 kts | 229° |
| 2026-05-05 08:39 | 21.19571 | -157.95870 | 6369 ft | 231 kts | 229° |
| 2026-05-05 08:39 | 21.18557 | -157.97201 | 6002 ft | 230 kts | 229° |
| 2026-05-05 08:39 | 21.17543 | -157.98529 | 5642 ft | 228 kts | 229° |
| 2026-05-05 08:39 | 21.16559 | -157.99815 | 5275 ft | 219 kts | 229° |
| 2026-05-05 08:40 | 21.15607 | -158.01050 | 4915 ft | 211 kts | 229° |
| 2026-05-05 08:40 | 21.14681 | -158.02249 | 4537 ft | 209 kts | 229° |
| 2026-05-05 08:40 | 21.13862 | -158.03522 | 4164 ft | 212 kts | 245° |
| 2026-05-05 08:40 | 21.13662 | -158.05077 | 3785 ft | 215 kts | 281° |
| 2026-05-05 08:41 | 21.14308 | -158.06504 | 3432 ft | 214 kts | 313° |
| 2026-05-05 08:41 | 21.15395 | -158.07532 | 3047 ft | 207 kts | 338° |
| 2026-05-05 08:41 | 21.16771 | -158.07777 | 2702 ft | 199 kts | 9° |
| 2026-05-05 08:41 | 21.18125 | -158.07568 | 2337 ft | 194 kts | 14° |
| 2026-05-05 08:42 | 21.19444 | -158.07315 | 2046 ft | 187 kts | 15° |
| 2026-05-05 08:42 | 21.20701 | -158.07066 | 2015 ft | 187 kts | 18° |
| 2026-05-05 08:42 | 21.21724 | -158.06401 | 2017 ft | 170 kts | 55° |
| 2026-05-05 08:42 | 21.22467 | -158.05386 | 2015 ft | 171 kts | 53° |
| 2026-05-05 08:43 | 21.23187 | -158.04375 | 2034 ft | 174 kts | 55° |
| 2026-05-05 08:43 | 21.23894 | -158.03375 | 2013 ft | 158 kts | 55° |
| 2026-05-05 08:43 | 21.24515 | -158.02496 | 1992 ft | 140 kts | 55° |
| 2026-05-05 08:43 | 21.25096 | -158.01667 | 2007 ft | 138 kts | 53° |
| 2026-05-05 08:44 | 21.25674 | -158.00845 | 1840 ft | 137 kts | 55° |
| 2026-05-05 08:44 | 21.26234 | -158.00031 | 1700 ft | 135 kts | 55° |
| 2026-05-05 08:44 | 21.26808 | -157.99211 | 1504 ft | 141 kts | 54° |
| 2026-05-05 08:44 | 21.27392 | -157.98385 | 1328 ft | 134 kts | 55° |
| 2026-05-05 08:45 | 21.27952 | -157.97578 | 1158 ft | 136 kts | 55° |
| 2026-05-05 08:45 | 21.28481 | -157.96788 | 954 ft | 129 kts | 50° |
| 2026-05-05 08:45 | 21.29097 | -157.95998 | 881 ft | 137 kts | 53° |
| 2026-05-05 08:45 | 21.29638 | -157.95223 | 645 ft | 131 kts | 52° |
| 2026-05-05 08:46 | 21.30210 | -157.94377 | 437 ft | 138 kts | 50° |
| 2026-05-05 08:46 | 21.30808 | -157.93557 | 264 ft | 139 kts | 52° |
| 2026-05-05 08:46 | 21.31372 | -157.92753 | 42 ft | 132 kts | 52° |
| 2026-05-05 08:46 | 21.31840 | -157.92085 | 28 ft | 88 kts | 51° |
| 2026-05-05 08:47 | 21.32112 | -157.91696 | 25 ft | 47 kts | 52° |
| 2026-05-05 08:47 | 21.32271 | -157.91479 | 19 ft | 26 kts | 45° |
| 2026-05-05 08:47 | 21.32405 | -157.91382 | 20 ft | 20 kts | 29° |
| 2026-05-05 08:47 | 21.32495 | -157.91345 | 22 ft | 13 kts | 13° |
| 2026-05-05 08:48 | 21.32578 | -157.91328 | 23 ft | 12 kts | 9° |
| 2026-05-05 08:48 | 21.32659 | -157.91314 | 23 ft | 12 kts | 9° |
| 2026-05-05 08:48 | 21.32729 | -157.91302 | 25 ft | 8 kts | 9° |
| 2026-05-05 08:48 | 21.32781 | -157.91295 | 25 ft | 6 kts | 7° |
| 2026-05-05 08:49 | 21.32820 | -157.91288 | 27 ft | 5 kts | 17° |
| 2026-05-05 08:49 | 21.32851 | -157.91272 | 30 ft | 5 kts | 31° |
| 2026-05-05 08:49 | 21.32879 | -157.91251 | 27 ft | 4 kts | 29° |
| 2026-05-05 08:49 | 21.32892 | -157.91251 | 30 ft | 0 kts | 351° |
| 2026-05-05 08:50 | 21.32897 | -157.91254 | 30 ft | 2 kts | 341° |
| 2026-05-05 08:50 | 21.32912 | -157.91265 | 28 ft | 4 kts | 318° |
| 2026-05-05 08:50 | 21.32924 | -157.91281 | 29 ft | 3 kts | 310° |
| 2026-05-05 08:50 | 21.32938 | -157.91294 | 29 ft | 3 kts | 318° |
| 2026-05-05 08:51 | 21.32942 | -157.91299 | 26 ft | 0 kts | 319° |